createdAt,value
2022-11-05T00:00:32.520Z,18.30
2022-11-05T00:03:18.422Z,18.53
2022-11-05T00:06:05.233Z,17.53
2022-11-05T00:08:51.401Z,19.00
2022-11-05T00:11:42.471Z,15.80
2022-11-05T00:14:28.404Z,16.00
2022-11-05T00:16:57.258Z,15.87
2022-11-05T00:19:25.779Z,18.03
2022-11-05T00:22:11.937Z,17.70
2022-11-05T00:24:58.128Z,17.77
2022-11-05T00:27:27.939Z,14.80
2022-11-05T00:29:56.465Z,15.77
2022-11-05T00:32:25.273Z,17.00
2022-11-05T00:34:54.121Z,17.50
2022-11-05T00:37:22.744Z,17.13
2022-11-05T00:39:51.218Z,18.00
2022-11-05T00:42:37.285Z,17.60
2022-11-05T00:45:08.832Z,15.90
2022-11-05T00:47:54.741Z,18.00
2022-11-05T00:50:24.237Z,15.37
2022-11-05T00:52:56.552Z,17.00
2022-11-05T00:55:26.573Z,16.03
2022-11-05T00:57:55.098Z,16.10
2022-11-05T01:00:26.299Z,17.60
2022-11-05T01:02:55.037Z,16.07
2022-11-05T01:05:23.609Z,18.80
2022-11-05T01:07:54.019Z,18.80
2022-11-05T01:10:23.668Z,16.87
2022-11-05T01:12:52.371Z,17.27
2022-11-05T01:15:21.517Z,17.47
2022-11-05T01:17:52.321Z,15.00
2022-11-05T01:20:20.837Z,17.93
2022-11-05T01:22:49.468Z,16.27
2022-11-05T01:25:18.103Z,16.73
2022-11-05T01:27:46.725Z,17.20
2022-11-05T01:30:15.475Z,17.50
2022-11-05T01:32:46.522Z,15.87
2022-11-05T01:35:17.873Z,13.50
2022-11-05T01:37:47.440Z,15.30
2022-11-05T01:40:17.997Z,14.53
2022-11-05T01:42:46.902Z,17.30
2022-11-05T01:45:19.293Z,15.90
2022-11-05T01:48:09.392Z,16.30
2022-11-05T01:50:44.466Z,16.93
2022-11-05T01:53:21.429Z,14.90
2022-11-05T01:55:54.893Z,18.50
2022-11-05T01:58:27.435Z,15.67
2022-11-05T02:00:57.307Z,15.40
2022-11-05T02:03:26.733Z,11.60
2022-11-05T02:05:58.602Z,10.80
2022-11-05T02:08:38.797Z,14.43
2022-11-05T02:11:07.502Z,14.60
2022-11-05T02:13:37.580Z,14.63
2022-11-05T02:16:14.937Z,16.23
2022-11-05T02:18:53.338Z,12.90
2022-11-05T02:21:46.408Z,13.57
2022-11-05T02:24:50.780Z,13.93
2022-11-05T02:27:26.301Z,14.70
2022-11-05T02:30:13.182Z,16.27
2022-11-05T02:33:04.595Z,13.60
2022-11-05T02:35:54.090Z,15.03
2022-11-05T02:38:37.130Z,16.30
2022-11-05T02:41:11.381Z,17.90
2022-11-05T02:43:48.126Z,16.10
2022-11-05T02:46:26.818Z,17.17
2022-11-05T02:49:04.288Z,17.30
2022-11-05T02:51:40.136Z,17.57
2022-11-05T02:54:15.322Z,16.87
2022-11-05T02:56:47.660Z,16.70
2022-11-05T02:59:16.221Z,15.50
2022-11-05T03:01:46.898Z,16.57
2022-11-05T03:04:20.934Z,15.10
2022-11-05T03:07:17.582Z,17.77
2022-11-05T03:10:16.173Z,16.87
2022-11-05T03:12:56.989Z,19.00
2022-11-05T03:15:40.260Z,18.70
2022-11-05T03:18:16.084Z,19.20
2022-11-05T03:20:51.300Z,19.10
2022-11-05T03:23:28.496Z,19.40
2022-11-05T03:26:00.606Z,19.30
2022-11-05T03:28:34.078Z,21.57
2022-11-05T03:31:03.961Z,21.93
2022-11-05T03:33:34.817Z,18.07
2022-11-05T03:36:11.050Z,19.93
2022-11-05T03:38:42.715Z,12.30
2022-11-05T03:41:14.891Z,17.13
2022-11-05T03:43:47.954Z,20.20
2022-11-05T03:46:21.274Z,20.10
2022-11-05T03:48:52.973Z,21.50
2022-11-05T03:51:31.544Z,17.73
2022-11-05T03:54:03.230Z,21.23
2022-11-05T03:56:36.843Z,20.67
2022-11-05T03:59:07.604Z,19.60
2022-11-05T04:01:38.793Z,19.90
2022-11-05T04:04:08.391Z,16.80
2022-11-05T04:06:57.219Z,18.73
2022-11-05T04:09:43.346Z,19.97
2022-11-05T04:12:29.877Z,18.20
2022-11-05T04:14:58.641Z,20.17
2022-11-05T04:17:26.124Z,17.87
2022-11-05T04:20:17.139Z,18.63
2022-11-05T04:23:04.407Z,20.37
2022-11-05T04:25:32.980Z,20.57
2022-11-05T04:28:01.821Z,19.53
2022-11-05T04:30:29.264Z,17.50
2022-11-05T04:33:02.989Z,17.00
2022-11-05T04:35:33.422Z,19.20
2022-11-05T04:38:03.608Z,18.97
2022-11-05T04:40:32.209Z,20.10
2022-11-05T04:43:00.885Z,16.90
2022-11-05T04:45:32.034Z,17.53
2022-11-05T04:48:00.488Z,19.57
2022-11-05T04:50:29.217Z,20.47
2022-11-05T04:52:57.857Z,16.87
2022-11-05T04:55:28.486Z,17.90
2022-11-05T04:57:57.305Z,18.90
2022-11-05T05:00:26.455Z,20.07
2022-11-05T05:02:55.479Z,19.07
2022-11-05T05:05:24.140Z,18.47
2022-11-05T05:07:52.665Z,18.93
2022-11-05T05:10:21.267Z,18.50
2022-11-05T05:12:51.279Z,17.53
2022-11-05T05:15:20.131Z,18.90
2022-11-05T05:17:52.372Z,17.67
2022-11-05T05:20:38.643Z,18.00
2022-11-05T05:23:07.108Z,19.60
2022-11-05T05:25:35.654Z,19.20
2022-11-05T05:28:05.636Z,17.87
2022-11-05T05:30:34.154Z,17.83
2022-11-05T05:33:04.808Z,19.13
2022-11-05T05:35:33.492Z,19.67
2022-11-05T05:38:01.963Z,19.27
2022-11-05T05:40:30.403Z,21.00
2022-11-05T05:42:58.929Z,18.43
2022-11-05T05:45:28.699Z,18.97
2022-11-05T05:47:57.696Z,20.43
2022-11-05T05:50:26.234Z,19.87
2022-11-05T05:52:54.781Z,20.87
2022-11-05T05:55:23.243Z,19.00
2022-11-05T05:57:51.793Z,19.47
2022-11-05T06:00:20.439Z,19.47
2022-11-05T06:02:50.277Z,22.20
2022-11-05T06:05:18.915Z,19.37
2022-11-05T06:07:47.384Z,20.43
2022-11-05T06:10:15.993Z,18.67
2022-11-05T06:12:44.520Z,19.77
2022-11-05T06:15:13.080Z,19.20
2022-11-05T06:17:41.627Z,19.90
2022-11-05T06:20:12.734Z,23.30
2022-11-05T06:22:41.290Z,19.20
2022-11-05T06:25:10.979Z,20.20
2022-11-05T06:27:39.439Z,26.40
2022-11-05T06:30:09.224Z,20.70
2022-11-05T06:32:37.824Z,20.17
2022-11-05T06:35:06.716Z,22.23
2022-11-05T06:37:36.617Z,18.50
2022-11-05T06:40:05.652Z,18.87
2022-11-05T06:42:34.254Z,19.23
2022-11-05T06:45:02.972Z,18.70
2022-11-05T06:47:31.435Z,17.40
2022-11-05T06:49:59.903Z,18.80
2022-11-05T06:52:31.172Z,16.80
2022-11-05T06:55:01.012Z,19.30
2022-11-05T06:57:29.454Z,17.77
2022-11-05T07:00:02.281Z,21.80
2022-11-05T07:02:33.025Z,27.60
2022-11-05T07:05:01.528Z,25.50
2022-11-05T07:07:29.998Z,23.03
2022-11-05T07:10:00.028Z,24.70
2022-11-05T07:12:28.507Z,18.40
2022-11-05T07:14:56.971Z,17.80
2022-11-05T07:17:25.852Z,18.47
2022-11-05T07:19:54.421Z,16.60
2022-11-05T07:22:22.895Z,19.27
2022-11-05T07:24:51.352Z,19.47
2022-11-05T07:27:21.775Z,20.13
2022-11-05T07:29:50.224Z,19.60
2022-11-05T07:32:18.689Z,19.60
2022-11-05T07:34:47.135Z,19.83
2022-11-05T07:37:16.810Z,22.50
2022-11-05T07:39:45.275Z,23.00
2022-11-05T07:42:14.668Z,19.60
2022-11-05T07:44:44.536Z,21.17
2022-11-05T07:47:13.038Z,17.77
2022-11-05T07:49:41.499Z,17.20
2022-11-05T07:52:10.013Z,15.93
2022-11-05T07:54:38.555Z,14.90
2022-11-05T07:57:07.233Z,16.97
2022-11-05T07:59:35.754Z,16.37
2022-11-05T08:02:05.823Z,15.03
2022-11-05T08:04:34.647Z,15.57
2022-11-05T08:07:03.155Z,16.83
2022-11-05T08:09:31.549Z,16.80
2022-11-05T08:12:03.022Z,16.50
2022-11-05T08:14:31.942Z,16.37
2022-11-05T08:17:00.373Z,15.73
2022-11-05T08:19:30.203Z,19.27
2022-11-05T08:21:58.697Z,20.27
2022-11-05T08:24:27.093Z,17.33
2022-11-05T08:26:55.726Z,16.80
2022-11-05T08:29:24.189Z,16.57
2022-11-05T08:31:52.674Z,15.33
2022-11-05T08:34:21.158Z,14.23
2022-11-05T08:36:50.965Z,13.57
2022-11-05T08:39:19.923Z,14.97
2022-11-05T08:41:48.423Z,16.80
2022-11-05T08:44:16.841Z,15.93
2022-11-05T08:46:45.362Z,13.73
2022-11-05T08:49:14.149Z,11.10
2022-11-05T08:51:44.228Z,12.30
2022-11-05T08:54:14.440Z,11.90
2022-11-05T08:56:42.949Z,13.80
2022-11-05T08:59:11.540Z,13.17
2022-11-05T09:01:40.075Z,13.93
2022-11-05T09:04:08.643Z,13.73
2022-11-05T09:06:37.133Z,14.33
2022-11-05T09:09:05.701Z,12.90
2022-11-05T09:11:57.417Z,11.80
2022-11-05T09:14:26.987Z,10.43
2022-11-05T09:16:55.667Z,10.67
2022-11-05T09:19:24.206Z,13.60
2022-11-05T09:21:52.712Z,12.73
2022-11-05T09:24:21.258Z,10.03
2022-11-05T09:26:51.116Z,10.80
2022-11-05T09:29:19.627Z,9.83
2022-11-05T09:31:48.127Z,10.20
2022-11-05T09:34:17.166Z,9.60
2022-11-05T09:36:45.684Z,8.60
2022-11-05T09:39:14.260Z,9.33
2022-11-05T09:41:44.468Z,8.30
2022-11-05T09:44:19.124Z,9.87
2022-11-05T09:46:50.757Z,8.57
2022-11-05T09:49:27.497Z,10.50
2022-11-05T09:51:58.408Z,8.53
2022-11-05T09:54:31.566Z,9.30
2022-11-05T09:57:03.145Z,9.10
2022-11-05T09:59:40.516Z,8.50
2022-11-05T10:02:18.642Z,11.50
2022-11-05T10:04:51.130Z,8.80
2022-11-05T10:07:22.896Z,8.60
2022-11-05T10:09:56.000Z,8.00
2022-11-05T10:12:29.683Z,9.63
2022-11-05T10:15:11.890Z,7.20
2022-11-05T10:17:45.004Z,8.90
2022-11-05T10:20:23.409Z,8.67
2022-11-05T10:22:56.270Z,7.83
2022-11-05T10:25:28.758Z,8.03
2022-11-05T10:27:58.403Z,7.10
2022-11-05T10:30:28.338Z,7.90
2022-11-05T10:33:00.448Z,7.27
2022-11-05T10:35:32.557Z,7.60
2022-11-05T10:38:01.206Z,7.37
2022-11-05T10:40:39.535Z,5.17
2022-11-05T10:43:13.340Z,7.47
2022-11-05T10:45:50.938Z,6.23
2022-11-05T10:48:44.087Z,7.00
2022-11-05T10:51:13.665Z,6.80
2022-11-05T10:53:51.012Z,5.10
2022-11-05T10:56:37.721Z,6.33
2022-11-05T10:59:19.658Z,5.73
2022-11-05T11:01:56.709Z,4.93
2022-11-05T11:04:27.731Z,4.97
2022-11-05T11:06:59.595Z,5.43
2022-11-05T11:09:31.482Z,4.43
2022-11-05T11:12:06.415Z,5.33
2022-11-05T11:14:35.283Z,4.70
2022-11-05T11:17:28.577Z,5.67
2022-11-05T11:20:22.401Z,5.10
2022-11-05T11:23:13.124Z,5.27
2022-11-05T11:25:47.863Z,4.90
2022-11-05T11:28:23.848Z,4.17
2022-11-05T11:31:05.642Z,4.90
2022-11-05T11:33:37.732Z,4.07
2022-11-05T11:36:10.464Z,4.53
2022-11-05T11:38:39.778Z,3.07
2022-11-05T11:41:26.589Z,3.53
2022-11-05T11:44:12.658Z,3.77
2022-11-05T11:49:46.252Z,2.80
2022-11-05T11:52:16.609Z,1.53
2022-11-05T11:54:45.505Z,3.00
2022-11-05T11:57:26.107Z,1.97
2022-11-05T12:00:08.971Z,3.10
2022-11-05T12:03:06.332Z,2.20
2022-11-05T12:05:42.464Z,3.97
2022-11-05T12:08:33.007Z,3.10
2022-11-05T12:11:06.806Z,2.57
2022-11-05T12:14:00.195Z,3.30
2022-11-05T12:16:52.072Z,3.63
2022-11-05T12:19:32.908Z,5.47
2022-11-05T12:22:10.847Z,3.83
2022-11-05T12:24:55.634Z,5.10
2022-11-05T12:27:36.345Z,3.90
2022-11-05T12:30:09.824Z,3.23
2022-11-05T12:33:16.734Z,3.80
2022-11-05T12:35:58.286Z,3.20
2022-11-05T12:38:49.434Z,2.70
2022-11-05T12:41:26.025Z,2.30
2022-11-05T12:44:10.938Z,2.50
2022-11-05T12:46:47.213Z,2.60
2022-11-05T12:49:44.919Z,2.03
2022-11-05T12:52:30.008Z,1.57
2022-11-05T12:55:05.142Z,2.50
2022-11-05T12:57:37.434Z,1.97
2022-11-05T13:00:10.550Z,2.03
2022-11-05T13:02:46.375Z,2.60
2022-11-05T13:05:17.480Z,3.90
2022-11-05T13:07:52.954Z,2.40
2022-11-05T13:10:29.269Z,2.27
2022-11-05T13:13:05.957Z,5.60
2022-11-05T13:15:39.989Z,2.83
2022-11-05T13:18:14.445Z,2.47
2022-11-05T13:20:47.572Z,3.40
2022-11-05T13:23:26.072Z,4.27
2022-11-05T13:26:01.787Z,3.80
2022-11-05T13:28:39.723Z,4.43
2022-11-05T13:31:13.409Z,3.17
2022-11-05T13:33:45.277Z,2.80
2022-11-05T13:36:34.258Z,3.20
2022-11-05T13:39:09.411Z,2.73
2022-11-05T13:41:59.235Z,3.00
2022-11-05T13:44:56.472Z,3.57
2022-11-05T13:47:44.526Z,2.93
2022-11-05T13:50:29.961Z,3.10
2022-11-05T13:53:15.489Z,3.60
2022-11-05T13:55:57.666Z,2.70
2022-11-05T13:58:48.673Z,2.83
2022-11-05T14:01:29.679Z,3.60
2022-11-05T14:03:58.775Z,3.87
2022-11-05T14:06:29.497Z,3.20
2022-11-05T14:09:00.011Z,2.93
2022-11-05T14:11:31.198Z,3.57
2022-11-05T14:14:05.360Z,3.13
2022-11-05T14:16:48.665Z,2.77
2022-11-05T14:19:36.276Z,3.00
2022-11-05T14:22:29.980Z,3.30
2022-11-05T14:24:58.781Z,2.70
2022-11-05T14:27:48.126Z,3.03
2022-11-05T14:30:43.125Z,2.70
2022-11-05T14:33:19.075Z,2.60
2022-11-05T14:35:47.644Z,3.57
2022-11-05T14:38:24.866Z,2.40
2022-11-05T14:41:01.883Z,2.90
2022-11-05T14:43:33.395Z,2.50
2022-11-05T14:46:06.232Z,2.40
2022-11-05T14:48:40.725Z,2.70
2022-11-05T14:51:26.485Z,3.03
2022-11-05T14:54:03.695Z,2.50
2022-11-05T14:56:44.751Z,6.20
2022-11-05T14:59:49.689Z,4.93
2022-11-05T15:02:22.248Z,5.67
2022-11-05T15:04:53.142Z,51.50
2022-11-05T15:07:42.357Z,47.17
2022-11-05T15:10:15.255Z,39.50
2022-11-05T15:12:46.659Z,26.33
2022-11-05T15:15:22.704Z,11.63
2022-11-05T15:18:01.840Z,5.80
2022-11-05T15:20:40.116Z,5.47
2022-11-05T15:23:12.952Z,5.90
2022-11-05T15:25:52.894Z,6.67
2022-11-05T15:28:31.573Z,5.77
2022-11-05T15:31:02.887Z,6.50
2022-11-05T15:33:33.786Z,6.00
2022-11-05T15:36:18.825Z,9.07
2022-11-05T15:39:08.169Z,6.80
2022-11-05T15:41:36.224Z,7.50
2022-11-05T15:44:04.977Z,7.50
2022-11-05T15:46:33.741Z,7.07
2022-11-05T15:49:07.154Z,56.60
2022-11-05T15:51:36.233Z,94.73
2022-11-05T15:56:58.442Z,8.50
2022-11-05T15:59:29.665Z,8.10
2022-11-05T16:02:19.901Z,7.60
2022-11-05T16:04:50.629Z,6.17
2022-11-05T16:07:20.595Z,12.90
2022-11-05T16:09:54.915Z,10.07
2022-11-05T16:12:32.482Z,8.53
2022-11-05T16:15:04.898Z,8.80
2022-11-05T16:17:46.975Z,10.60
2022-11-05T16:20:29.691Z,10.07
2022-11-05T16:23:00.353Z,8.50
2022-11-05T16:25:35.900Z,11.30
2022-11-05T16:28:06.030Z,11.27
2022-11-05T16:30:34.641Z,10.47
2022-11-05T16:33:08.644Z,10.30
2022-11-05T16:35:47.943Z,10.97
2022-11-05T16:38:23.158Z,12.13
2022-11-05T16:40:51.603Z,16.00
2022-11-05T16:43:23.191Z,28.30
2022-11-05T16:45:53.905Z,28.60
2022-11-05T16:48:22.707Z,16.53
2022-11-05T16:50:52.644Z,13.30
2022-11-05T16:53:21.241Z,14.63
2022-11-05T16:55:50.448Z,15.10
2022-11-05T16:58:22.813Z,16.50
2022-11-05T17:00:53.403Z,13.27
2022-11-05T17:03:21.848Z,14.77
2022-11-05T17:05:51.770Z,13.03
2022-11-05T17:08:20.215Z,13.10
2022-11-05T17:10:48.769Z,12.27
2022-11-05T17:13:18.872Z,9.73
2022-11-05T17:15:50.509Z,10.53
2022-11-05T17:18:19.675Z,10.80
2022-11-05T17:20:51.012Z,11.57
2022-11-05T17:23:22.385Z,10.47
2022-11-05T17:25:52.436Z,10.50
2022-11-05T17:28:22.353Z,8.63
2022-11-05T17:30:53.028Z,10.40
2022-11-05T17:33:23.499Z,9.27
2022-11-05T17:35:52.703Z,8.80
2022-11-05T17:38:23.450Z,11.40
2022-11-05T17:40:52.210Z,13.20
2022-11-05T17:43:21.432Z,12.00
2022-11-05T17:45:51.961Z,11.97
2022-11-05T17:48:21.172Z,10.47
2022-11-05T17:50:51.257Z,11.67
2022-11-05T17:53:21.894Z,11.00
2022-11-05T17:55:50.661Z,12.53
2022-11-05T17:58:19.259Z,12.77
2022-11-05T18:00:48.658Z,12.17
2022-11-05T18:03:17.111Z,11.50
2022-11-05T18:05:45.618Z,10.37
2022-11-05T18:08:14.752Z,11.30
2022-11-05T18:10:45.178Z,12.00
2022-11-05T18:13:14.532Z,11.63
2022-11-05T18:15:43.678Z,12.17
2022-11-05T18:18:13.098Z,13.43
2022-11-05T18:20:43.217Z,13.63
2022-11-05T18:23:12.340Z,12.77
2022-11-05T18:25:43.360Z,14.57
2022-11-05T18:28:12.229Z,14.10
2022-11-05T18:30:41.022Z,13.40
2022-11-05T18:33:09.954Z,11.60
2022-11-05T18:35:42.608Z,13.37
2022-11-05T18:38:11.369Z,11.70
2022-11-05T18:40:40.021Z,13.50
2022-11-05T18:43:10.242Z,12.93
2022-11-05T18:45:39.063Z,12.93
2022-11-05T18:48:08.018Z,15.00
2022-11-05T18:50:41.001Z,14.97
2022-11-05T18:53:09.535Z,10.90
2022-11-05T18:55:40.413Z,11.50
2022-11-05T18:58:10.713Z,15.27
2022-11-05T19:00:41.020Z,12.67
2022-11-05T19:03:09.593Z,10.70
2022-11-05T19:05:38.426Z,12.93
2022-11-05T19:08:07.076Z,13.87
2022-11-05T19:10:35.617Z,13.70
2022-11-05T19:13:04.145Z,13.33
2022-11-05T19:15:34.824Z,13.50
2022-11-05T19:18:03.335Z,13.07
2022-11-05T19:20:37.496Z,13.77
2022-11-05T19:23:06.425Z,12.20
2022-11-05T19:25:34.982Z,12.93
2022-11-05T19:28:03.500Z,11.10
2022-11-05T19:30:33.564Z,11.00
2022-11-05T19:33:02.111Z,11.77
2022-11-05T19:35:30.662Z,12.77
2022-11-05T19:37:59.223Z,16.13
2022-11-05T19:40:27.815Z,13.50
2022-11-05T19:42:56.274Z,12.90
2022-11-05T19:45:43.745Z,13.60
2022-11-05T19:48:19.073Z,10.80
2022-11-05T19:50:48.637Z,13.23
2022-11-05T19:53:17.191Z,11.17
2022-11-05T19:55:45.831Z,11.57
2022-11-05T19:58:14.750Z,10.73
2022-11-05T20:00:43.622Z,12.10
2022-11-05T20:03:14.579Z,10.87
2022-11-05T20:05:43.310Z,11.43
2022-11-05T20:08:12.677Z,12.37
2022-11-05T20:10:41.402Z,12.90
2022-11-05T20:13:10.801Z,13.33
2022-11-05T20:15:41.818Z,12.63
2022-11-05T20:18:10.684Z,11.90
2022-11-05T20:20:41.825Z,12.70
2022-11-05T20:23:10.694Z,13.60
2022-11-05T20:25:39.371Z,12.90
2022-11-05T20:28:08.231Z,12.00
2022-11-05T20:30:36.857Z,12.10
2022-11-05T20:33:05.675Z,13.70
2022-11-05T20:35:34.509Z,11.57
2022-11-05T20:38:04.494Z,13.80
2022-11-05T20:40:33.194Z,13.40
2022-11-05T20:43:02.422Z,12.53
2022-11-05T20:45:31.284Z,13.23
2022-11-05T20:47:59.785Z,14.70
2022-11-05T20:50:28.430Z,12.60
2022-11-05T20:52:56.995Z,11.97
2022-11-05T20:55:26.985Z,14.27
2022-11-05T20:57:55.565Z,14.13
2022-11-05T21:00:24.517Z,15.97
2022-11-05T21:02:54.338Z,14.40
2022-11-05T21:05:23.313Z,16.53
2022-11-05T21:07:55.352Z,16.70
2022-11-05T21:10:24.130Z,17.67
2022-11-05T21:12:54.376Z,19.37
2022-11-05T21:15:23.286Z,19.67
2022-11-05T21:17:54.404Z,22.60
2022-11-05T21:20:23.412Z,24.23
2022-11-05T21:22:52.068Z,23.53
2022-11-05T21:25:20.790Z,23.87
2022-11-05T21:27:49.533Z,24.20
2022-11-05T21:30:22.880Z,21.83
2022-11-05T21:32:51.595Z,21.07
2022-11-05T21:35:20.362Z,20.70
2022-11-05T21:37:49.380Z,21.33
2022-11-05T21:40:18.489Z,19.93
2022-11-05T21:42:47.211Z,21.00
2022-11-05T21:45:16.023Z,19.57
2022-11-05T21:47:46.415Z,17.50
2022-11-05T21:50:19.448Z,15.97
2022-11-05T21:53:07.713Z,16.53
2022-11-05T21:55:53.676Z,14.80
2022-11-05T21:58:39.580Z,16.27
2022-11-05T22:01:08.451Z,14.97
2022-11-05T22:03:41.336Z,14.27
2022-11-05T22:06:10.200Z,15.07
2022-11-05T22:08:40.907Z,15.47
2022-11-05T22:11:09.849Z,14.70
2022-11-05T22:13:38.504Z,14.10
2022-11-05T22:16:07.908Z,14.00
2022-11-05T22:18:37.791Z,15.17
2022-11-05T22:21:06.811Z,16.50
2022-11-05T22:23:35.307Z,17.30
2022-11-05T22:26:03.957Z,14.67
2022-11-05T22:28:32.464Z,15.70
2022-11-05T22:31:02.295Z,15.73
2022-11-05T22:33:31.942Z,14.93
2022-11-05T22:36:01.993Z,14.97
2022-11-05T22:38:32.189Z,15.40
2022-11-05T22:41:00.926Z,13.67
2022-11-05T22:43:29.544Z,14.90
2022-11-05T22:46:03.712Z,13.80
2022-11-05T22:48:32.244Z,14.67
2022-11-05T22:51:06.107Z,15.97
2022-11-05T22:53:37.148Z,15.10
2022-11-05T22:56:07.471Z,13.87
2022-11-05T22:58:36.535Z,15.60
2022-11-05T23:01:05.600Z,15.40
2022-11-05T23:03:35.088Z,16.23
2022-11-05T23:06:07.538Z,13.67
2022-11-05T23:08:53.569Z,15.43
2022-11-05T23:11:38.520Z,13.70
2022-11-05T23:14:08.186Z,15.30
2022-11-05T23:16:54.834Z,14.73
2022-11-05T23:19:41.927Z,13.27
2022-11-05T23:22:32.006Z,13.10
2022-11-05T23:25:00.784Z,12.87
2022-11-05T23:27:31.553Z,13.70
2022-11-05T23:30:00.958Z,13.80
2022-11-05T23:32:30.229Z,11.50
2022-11-05T23:34:59.528Z,13.67
2022-11-05T23:37:48.513Z,14.30
2022-11-05T23:40:20.131Z,15.53
2022-11-05T23:43:06.461Z,15.63
2022-11-05T23:45:55.739Z,16.87
2022-11-05T23:48:28.597Z,16.23
2022-11-05T23:51:00.869Z,16.90
2022-11-05T23:53:32.294Z,18.00
2022-11-05T23:56:02.631Z,18.50
2022-11-05T23:58:31.235Z,19.50
